sensor_id;sensor_type;location;lat;lon;timestamp;P1;durP1;ratioP1;P2;durP2;ratioP2
29218;SDS011;16421;50.202;7.852;2023-07-29T00:00:57;0.40;;;0.17;;
29218;SDS011;16421;50.202;7.852;2023-07-29T00:06:01;0.20;;;0.20;;
29218;SDS011;16421;50.202;7.852;2023-07-29T00:11:06;0.20;;;0.20;;
29218;SDS011;16421;50.202;7.852;2023-07-29T00:16:10;0.15;;;0.15;;
29218;SDS011;16421;50.202;7.852;2023-07-29T00:21:13;1.98;;;0.30;;
29218;SDS011;16421;50.202;7.852;2023-07-29T00:26:18;0.60;;;0.30;;
29218;SDS011;16421;50.202;7.852;2023-07-29T00:31:23;0.20;;;0.20;;
29218;SDS011;16421;50.202;7.852;2023-07-29T00:36:26;1.65;;;0.30;;
29218;SDS011;16421;50.202;7.852;2023-07-29T00:41:31;0.20;;;0.20;;
29218;SDS011;16421;50.202;7.852;2023-07-29T00:46:34;0.30;;;0.30;;
29218;SDS011;16421;50.202;7.852;2023-07-29T00:51:40;1.10;;;0.32;;
29218;SDS011;16421;50.202;7.852;2023-07-29T00:56:45;0.30;;;0.30;;
29218;SDS011;16421;50.202;7.852;2023-07-29T01:01:48;0.22;;;0.22;;
29218;SDS011;16421;50.202;7.852;2023-07-29T01:06:53;0.60;;;0.40;;
29218;SDS011;16421;50.202;7.852;2023-07-29T01:12:05;0.35;;;0.20;;
29218;SDS011;16421;50.202;7.852;2023-07-29T01:17:13;0.40;;;0.30;;
29218;SDS011;16421;50.202;7.852;2023-07-29T01:22:25;0.20;;;0.20;;
29218;SDS011;16421;50.202;7.852;2023-07-29T01:27:29;0.50;;;0.30;;
29218;SDS011;16421;50.202;7.852;2023-07-29T01:32:35;0.30;;;0.30;;
29218;SDS011;16421;50.202;7.852;2023-07-29T01:37:42;0.30;;;0.30;;
29218;SDS011;16421;50.202;7.852;2023-07-29T01:42:53;0.40;;;0.40;;
29218;SDS011;16421;50.202;7.852;2023-07-29T01:47:58;0.38;;;0.30;;
29218;SDS011;16421;50.202;7.852;2023-07-29T01:53:01;0.68;;;0.40;;
29218;SDS011;16421;50.202;7.852;2023-07-29T01:58:06;0.28;;;0.25;;
29218;SDS011;16421;50.202;7.852;2023-07-29T02:03:11;0.70;;;0.20;;
29218;SDS011;16421;50.202;7.852;2023-07-29T02:08:15;2.50;;;0.20;;
29218;SDS011;16421;50.202;7.852;2023-07-29T02:13:19;0.40;;;0.40;;
29218;SDS011;16421;50.202;7.852;2023-07-29T02:18:23;0.47;;;0.40;;
29218;SDS011;16421;50.202;7.852;2023-07-29T02:23:26;1.00;;;0.40;;
29218;SDS011;16421;50.202;7.852;2023-07-29T02:28:31;0.63;;;0.40;;
29218;SDS011;16421;50.202;7.852;2023-07-29T02:33:34;0.70;;;0.43;;
29218;SDS011;16421;50.202;7.852;2023-07-29T02:38:38;0.40;;;0.40;;
29218;SDS011;16421;50.202;7.852;2023-07-29T02:43:43;0.35;;;0.35;;
29218;SDS011;16421;50.202;7.852;2023-07-29T02:48:50;0.30;;;0.30;;
29218;SDS011;16421;50.202;7.852;2023-07-29T02:53:53;2.10;;;0.40;;
29218;SDS011;16421;50.202;7.852;2023-07-29T02:58:58;0.22;;;0.22;;
29218;SDS011;16421;50.202;7.852;2023-07-29T03:04:04;0.63;;;0.40;;
29218;SDS011;16421;50.202;7.852;2023-07-29T03:09:07;0.40;;;0.30;;
29218;SDS011;16421;50.202;7.852;2023-07-29T03:14:12;0.50;;;0.30;;
29218;SDS011;16421;50.202;7.852;2023-07-29T03:19:15;0.93;;;0.57;;
29218;SDS011;16421;50.202;7.852;2023-07-29T03:24:19;0.35;;;0.30;;
29218;SDS011;16421;50.202;7.852;2023-07-29T03:29:24;0.38;;;0.30;;
29218;SDS011;16421;50.202;7.852;2023-07-29T03:34:27;0.40;;;0.40;;
29218;SDS011;16421;50.202;7.852;2023-07-29T03:39:31;0.40;;;0.40;;
29218;SDS011;16421;50.202;7.852;2023-07-29T03:44:36;0.40;;;0.40;;
29218;SDS011;16421;50.202;7.852;2023-07-29T03:49:40;0.30;;;0.30;;
29218;SDS011;16421;50.202;7.852;2023-07-29T03:54:45;3.13;;;0.50;;
29218;SDS011;16421;50.202;7.852;2023-07-29T03:59:49;0.30;;;0.30;;
29218;SDS011;16421;50.202;7.852;2023-07-29T04:04:53;1.50;;;0.40;;
29218;SDS011;16421;50.202;7.852;2023-07-29T04:09:56;0.25;;;0.25;;
29218;SDS011;16421;50.202;7.852;2023-07-29T04:15:01;0.35;;;0.30;;
29218;SDS011;16421;50.202;7.852;2023-07-29T04:20:06;1.23;;;0.50;;
29218;SDS011;16421;50.202;7.852;2023-07-29T04:25:10;0.35;;;0.30;;
29218;SDS011;16421;50.202;7.852;2023-07-29T04:30:15;0.28;;;0.28;;
29218;SDS011;16421;50.202;7.852;2023-07-29T04:35:19;0.32;;;0.32;;
29218;SDS011;16421;50.202;7.852;2023-07-29T04:40:22;0.30;;;0.30;;
29218;SDS011;16421;50.202;7.852;2023-07-29T04:45:28;0.38;;;0.30;;
29218;SDS011;16421;50.202;7.852;2023-07-29T04:50:32;1.83;;;0.70;;
29218;SDS011;16421;50.202;7.852;2023-07-29T04:55:35;1.00;;;0.47;;
29218;SDS011;16421;50.202;7.852;2023-07-29T05:00:40;0.28;;;0.28;;
29218;SDS011;16421;50.202;7.852;2023-07-29T05:05:43;0.38;;;0.38;;
29218;SDS011;16421;50.202;7.852;2023-07-29T05:10:48;0.40;;;0.40;;
29218;SDS011;16421;50.202;7.852;2023-07-29T05:15:53;0.47;;;0.47;;
29218;SDS011;16421;50.202;7.852;2023-07-29T05:20:57;0.40;;;0.37;;
29218;SDS011;16421;50.202;7.852;2023-07-29T05:26:00;0.60;;;0.60;;
29218;SDS011;16421;50.202;7.852;2023-07-29T05:31:05;1.20;;;0.40;;
29218;SDS011;16421;50.202;7.852;2023-07-29T05:36:09;0.35;;;0.30;;
29218;SDS011;16421;50.202;7.852;2023-07-29T05:41:13;0.50;;;0.40;;
29218;SDS011;16421;50.202;7.852;2023-07-29T05:46:17;0.70;;;0.70;;
29218;SDS011;16421;50.202;7.852;2023-07-29T05:51:21;0.82;;;0.40;;
29218;SDS011;16421;50.202;7.852;2023-07-29T05:56:24;0.45;;;0.40;;
29218;SDS011;16421;50.202;7.852;2023-07-29T06:01:29;0.40;;;0.40;;
29218;SDS011;16421;50.202;7.852;2023-07-29T06:06:32;0.70;;;0.55;;
29218;SDS011;16421;50.202;7.852;2023-07-29T06:11:35;0.35;;;0.32;;
29218;SDS011;16421;50.202;7.852;2023-07-29T06:16:40;1.50;;;0.20;;
29218;SDS011;16421;50.202;7.852;2023-07-29T06:21:44;0.68;;;0.40;;
29218;SDS011;16421;50.202;7.852;2023-07-29T06:26:47;0.47;;;0.40;;
29218;SDS011;16421;50.202;7.852;2023-07-29T06:31:52;0.63;;;0.55;;
29218;SDS011;16421;50.202;7.852;2023-07-29T06:36:56;2.65;;;0.50;;
29218;SDS011;16421;50.202;7.852;2023-07-29T06:41:59;0.68;;;0.45;;
29218;SDS011;16421;50.202;7.852;2023-07-29T06:47:05;0.68;;;0.40;;
29218;SDS011;16421;50.202;7.852;2023-07-29T06:52:08;0.43;;;0.43;;
29218;SDS011;16421;50.202;7.852;2023-07-29T06:57:11;0.88;;;0.50;;
29218;SDS011;16421;50.202;7.852;2023-07-29T07:02:16;0.50;;;0.50;;
29218;SDS011;16421;50.202;7.852;2023-07-29T07:07:20;0.57;;;0.40;;
29218;SDS011;16421;50.202;7.852;2023-07-29T07:12:23;0.82;;;0.47;;
29218;SDS011;16421;50.202;7.852;2023-07-29T07:17:28;0.40;;;0.40;;
29218;SDS011;16421;50.202;7.852;2023-07-29T07:22:31;0.80;;;0.40;;
29218;SDS011;16421;50.202;7.852;2023-07-29T07:27:34;0.40;;;0.40;;
29218;SDS011;16421;50.202;7.852;2023-07-29T07:32:39;0.50;;;0.50;;
29218;SDS011;16421;50.202;7.852;2023-07-29T07:37:43;1.40;;;0.82;;
29218;SDS011;16421;50.202;7.852;2023-07-29T07:42:46;1.27;;;0.80;;
29218;SDS011;16421;50.202;7.852;2023-07-29T07:47:52;0.55;;;0.50;;
29218;SDS011;16421;50.202;7.852;2023-07-29T07:52:56;1.95;;;0.50;;
29218;SDS011;16421;50.202;7.852;2023-07-29T07:57:59;0.73;;;0.73;;
29218;SDS011;16421;50.202;7.852;2023-07-29T08:03:04;0.80;;;0.70;;
29218;SDS011;16421;50.202;7.852;2023-07-29T08:08:07;0.68;;;0.68;;
29218;SDS011;16421;50.202;7.852;2023-07-29T08:13:10;0.68;;;0.60;;
29218;SDS011;16421;50.202;7.852;2023-07-29T08:18:15;0.57;;;0.47;;
29218;SDS011;16421;50.202;7.852;2023-07-29T08:23:18;1.38;;;0.50;;
29218;SDS011;16421;50.202;7.852;2023-07-29T08:28:22;0.50;;;0.45;;
29218;SDS011;16421;50.202;7.852;2023-07-29T08:33:27;0.52;;;0.50;;
29218;SDS011;16421;50.202;7.852;2023-07-29T08:38:31;0.88;;;0.60;;
29218;SDS011;16421;50.202;7.852;2023-07-29T08:43:34;0.90;;;0.60;;
29218;SDS011;16421;50.202;7.852;2023-07-29T08:48:43;0.80;;;0.80;;
29218;SDS011;16421;50.202;7.852;2023-07-29T08:53:46;1.67;;;0.80;;
29218;SDS011;16421;50.202;7.852;2023-07-29T08:58:50;0.70;;;0.70;;
29218;SDS011;16421;50.202;7.852;2023-07-29T09:03:56;0.60;;;0.50;;
29218;SDS011;16421;50.202;7.852;2023-07-29T09:09:01;0.40;;;0.40;;
29218;SDS011;16421;50.202;7.852;2023-07-29T09:19:10;2.13;;;0.80;;
29218;SDS011;16421;50.202;7.852;2023-07-29T09:24:15;0.60;;;0.60;;
29218;SDS011;16421;50.202;7.852;2023-07-29T09:34:25;1.83;;;0.77;;
29218;SDS011;16421;50.202;7.852;2023-07-29T09:39:29;0.90;;;0.80;;
29218;SDS011;16421;50.202;7.852;2023-07-29T09:44:35;1.40;;;0.90;;
29218;SDS011;16421;50.202;7.852;2023-07-29T09:49:40;0.70;;;0.70;;
29218;SDS011;16421;50.202;7.852;2023-07-29T09:54:44;0.82;;;0.70;;
29218;SDS011;16421;50.202;7.852;2023-07-29T09:59:54;0.88;;;0.80;;
29218;SDS011;16421;50.202;7.852;2023-07-29T10:04:59;0.90;;;0.70;;
29218;SDS011;16421;50.202;7.852;2023-07-29T10:10:05;1.30;;;0.75;;
29218;SDS011;16421;50.202;7.852;2023-07-29T10:15:19;0.83;;;0.70;;
29218;SDS011;16421;50.202;7.852;2023-07-29T10:20:25;2.50;;;0.77;;
29218;SDS011;16421;50.202;7.852;2023-07-29T10:25:30;0.50;;;0.50;;
29218;SDS011;16421;50.202;7.852;2023-07-29T10:30:39;0.98;;;0.35;;
29218;SDS011;16421;50.202;7.852;2023-07-29T10:35:45;0.70;;;0.55;;
29218;SDS011;16421;50.202;7.852;2023-07-29T10:40:50;0.65;;;0.60;;
29218;SDS011;16421;50.202;7.852;2023-07-29T10:45:59;0.80;;;0.70;;
29218;SDS011;16421;50.202;7.852;2023-07-29T10:51:23;1.17;;;0.60;;
29218;SDS011;16421;50.202;7.852;2023-07-29T10:56:32;0.55;;;0.50;;
29218;SDS011;16421;50.202;7.852;2023-07-29T11:01:38;0.70;;;0.50;;
29218;SDS011;16421;50.202;7.852;2023-07-29T11:12:40;0.32;;;0.32;;
29218;SDS011;16421;50.202;7.852;2023-07-29T11:17:47;0.73;;;0.47;;
29218;SDS011;16421;50.202;7.852;2023-07-29T11:22:53;0.82;;;0.50;;
29218;SDS011;16421;50.202;7.852;2023-07-29T11:27:59;0.50;;;0.50;;
29218;SDS011;16421;50.202;7.852;2023-07-29T11:33:07;0.75;;;0.65;;
29218;SDS011;16421;50.202;7.852;2023-07-29T11:38:15;6.07;;;0.97;;
29218;SDS011;16421;50.202;7.852;2023-07-29T11:43:19;1.05;;;0.65;;
29218;SDS011;16421;50.202;7.852;2023-07-29T11:48:26;0.75;;;0.60;;
29218;SDS011;16421;50.202;7.852;2023-07-29T11:53:31;0.77;;;0.65;;
29218;SDS011;16421;50.202;7.852;2023-07-29T11:58:35;2.23;;;0.73;;
29218;SDS011;16421;50.202;7.852;2023-07-29T12:03:41;1.33;;;1.00;;
29218;SDS011;16421;50.202;7.852;2023-07-29T12:08:47;0.90;;;0.68;;
29218;SDS011;16421;50.202;7.852;2023-07-29T12:13:53;0.98;;;0.90;;
29218;SDS011;16421;50.202;7.852;2023-07-29T12:18:56;1.52;;;1.10;;
29218;SDS011;16421;50.202;7.852;2023-07-29T12:24:04;1.17;;;0.80;;
29218;SDS011;16421;50.202;7.852;2023-07-29T12:29:12;1.95;;;1.02;;
29218;SDS011;16421;50.202;7.852;2023-07-29T12:34:19;1.15;;;0.90;;
29218;SDS011;16421;50.202;7.852;2023-07-29T12:39:27;1.67;;;1.00;;
29218;SDS011;16421;50.202;7.852;2023-07-29T12:44:32;0.90;;;0.80;;
29218;SDS011;16421;50.202;7.852;2023-07-29T12:49:37;1.15;;;0.73;;
29218;SDS011;16421;50.202;7.852;2023-07-29T12:54:42;0.73;;;0.70;;
29218;SDS011;16421;50.202;7.852;2023-07-29T12:59:46;1.75;;;0.88;;
29218;SDS011;16421;50.202;7.852;2023-07-29T13:04:49;0.60;;;0.60;;
29218;SDS011;16421;50.202;7.852;2023-07-29T13:09:54;0.63;;;0.60;;
29218;SDS011;16421;50.202;7.852;2023-07-29T13:14:58;0.80;;;0.77;;
29218;SDS011;16421;50.202;7.852;2023-07-29T13:20:02;2.10;;;0.60;;
29218;SDS011;16421;50.202;7.852;2023-07-29T13:25:07;0.80;;;0.80;;
29218;SDS011;16421;50.202;7.852;2023-07-29T13:35:14;1.70;;;1.08;;
29218;SDS011;16421;50.202;7.852;2023-07-29T13:40:19;1.40;;;1.05;;
29218;SDS011;16421;50.202;7.852;2023-07-29T13:45:23;1.55;;;0.73;;
29218;SDS011;16421;50.202;7.852;2023-07-29T13:50:27;2.00;;;0.90;;
29218;SDS011;16421;50.202;7.852;2023-07-29T13:55:33;1.00;;;0.90;;
29218;SDS011;16421;50.202;7.852;2023-07-29T14:00:36;2.05;;;0.80;;
29218;SDS011;16421;50.202;7.852;2023-07-29T14:05:40;3.60;;;0.85;;
29218;SDS011;16421;50.202;7.852;2023-07-29T14:10:45;1.02;;;0.80;;
29218;SDS011;16421;50.202;7.852;2023-07-29T14:15:49;1.05;;;0.65;;
29218;SDS011;16421;50.202;7.852;2023-07-29T14:20:52;3.50;;;0.90;;
29218;SDS011;16421;50.202;7.852;2023-07-29T14:25:57;2.13;;;0.90;;
29218;SDS011;16421;50.202;7.852;2023-07-29T14:31:01;0.90;;;0.90;;
29218;SDS011;16421;50.202;7.852;2023-07-29T14:36:05;1.30;;;1.10;;
29218;SDS011;16421;50.202;7.852;2023-07-29T14:41:10;1.17;;;0.88;;
29218;SDS011;16421;50.202;7.852;2023-07-29T14:46:14;1.05;;;0.95;;
29218;SDS011;16421;50.202;7.852;2023-07-29T14:51:17;1.00;;;0.85;;
29218;SDS011;16421;50.202;7.852;2023-07-29T14:56:22;0.90;;;0.90;;
29218;SDS011;16421;50.202;7.852;2023-07-29T15:01:25;1.08;;;0.80;;
29218;SDS011;16421;50.202;7.852;2023-07-29T15:06:29;0.93;;;0.70;;
29218;SDS011;16421;50.202;7.852;2023-07-29T15:11:36;0.80;;;0.80;;
29218;SDS011;16421;50.202;7.852;2023-07-29T15:16:39;1.20;;;0.85;;
29218;SDS011;16421;50.202;7.852;2023-07-29T15:21:43;1.02;;;0.90;;
29218;SDS011;16421;50.202;7.852;2023-07-29T15:26:48;0.98;;;0.88;;
29218;SDS011;16421;50.202;7.852;2023-07-29T15:31:51;0.70;;;0.70;;
29218;SDS011;16421;50.202;7.852;2023-07-29T15:36:55;0.70;;;0.63;;
29218;SDS011;16421;50.202;7.852;2023-07-29T15:41:59;0.60;;;0.60;;
29218;SDS011;16421;50.202;7.852;2023-07-29T15:47:03;1.65;;;1.00;;
29218;SDS011;16421;50.202;7.852;2023-07-29T15:52:07;1.17;;;0.88;;
29218;SDS011;16421;50.202;7.852;2023-07-29T15:57:14;1.02;;;0.80;;
29218;SDS011;16421;50.202;7.852;2023-07-29T16:02:20;1.48;;;0.88;;
29218;SDS011;16421;50.202;7.852;2023-07-29T16:07:24;0.93;;;0.80;;
29218;SDS011;16421;50.202;7.852;2023-07-29T16:17:37;1.45;;;0.90;;
29218;SDS011;16421;50.202;7.852;2023-07-29T16:22:41;1.15;;;0.98;;
29218;SDS011;16421;50.202;7.852;2023-07-29T16:27:46;0.98;;;0.77;;
29218;SDS011;16421;50.202;7.852;2023-07-29T16:32:49;0.80;;;0.70;;
29218;SDS011;16421;50.202;7.852;2023-07-29T16:37:53;1.00;;;0.90;;
29218;SDS011;16421;50.202;7.852;2023-07-29T16:43:00;0.80;;;0.60;;
29218;SDS011;16421;50.202;7.852;2023-07-29T16:48:04;1.38;;;0.80;;
29218;SDS011;16421;50.202;7.852;2023-07-29T16:53:07;1.02;;;0.70;;
29218;SDS011;16421;50.202;7.852;2023-07-29T16:58:12;0.60;;;0.60;;
29218;SDS011;16421;50.202;7.852;2023-07-29T17:03:16;2.88;;;0.68;;
29218;SDS011;16421;50.202;7.852;2023-07-29T17:08:21;0.70;;;0.70;;
29218;SDS011;16421;50.202;7.852;2023-07-29T17:13:29;1.48;;;0.88;;
29218;SDS011;16421;50.202;7.852;2023-07-29T17:18:33;1.10;;;1.00;;
29218;SDS011;16421;50.202;7.852;2023-07-29T17:23:38;1.10;;;0.83;;
29218;SDS011;16421;50.202;7.852;2023-07-29T17:28:42;0.75;;;0.68;;
29218;SDS011;16421;50.202;7.852;2023-07-29T17:33:48;0.93;;;0.80;;
29218;SDS011;16421;50.202;7.852;2023-07-29T17:38:51;1.25;;;0.90;;
29218;SDS011;16421;50.202;7.852;2023-07-29T17:43:56;0.90;;;0.75;;
29218;SDS011;16421;50.202;7.852;2023-07-29T17:49:01;0.70;;;0.70;;
29218;SDS011;16421;50.202;7.852;2023-07-29T17:54:05;0.88;;;0.70;;
29218;SDS011;16421;50.202;7.852;2023-07-29T17:59:09;1.08;;;0.73;;
29218;SDS011;16421;50.202;7.852;2023-07-29T18:04:13;1.43;;;0.90;;
29218;SDS011;16421;50.202;7.852;2023-07-29T18:09:16;0.65;;;0.57;;
29218;SDS011;16421;50.202;7.852;2023-07-29T18:14:22;0.70;;;0.50;;
29218;SDS011;16421;50.202;7.852;2023-07-29T18:19:25;1.23;;;0.60;;
29218;SDS011;16421;50.202;7.852;2023-07-29T18:24:31;0.70;;;0.60;;
29218;SDS011;16421;50.202;7.852;2023-07-29T18:29:36;0.90;;;0.80;;
29218;SDS011;16421;50.202;7.852;2023-07-29T18:34:40;0.52;;;0.52;;
29218;SDS011;16421;50.202;7.852;2023-07-29T18:39:43;0.70;;;0.50;;
29218;SDS011;16421;50.202;7.852;2023-07-29T18:44:48;0.60;;;0.50;;
29218;SDS011;16421;50.202;7.852;2023-07-29T18:49:52;0.90;;;0.60;;
29218;SDS011;16421;50.202;7.852;2023-07-29T18:54:55;0.70;;;0.70;;
29218;SDS011;16421;50.202;7.852;2023-07-29T19:00:02;1.40;;;0.75;;
29218;SDS011;16421;50.202;7.852;2023-07-29T19:05:06;0.73;;;0.60;;
29218;SDS011;16421;50.202;7.852;2023-07-29T19:10:12;0.77;;;0.65;;
29218;SDS011;16421;50.202;7.852;2023-07-29T19:15:17;1.95;;;0.88;;
29218;SDS011;16421;50.202;7.852;2023-07-29T19:20:20;3.23;;;0.90;;
29218;SDS011;16421;50.202;7.852;2023-07-29T19:25:24;0.80;;;0.70;;
29218;SDS011;16421;50.202;7.852;2023-07-29T19:30:28;0.65;;;0.65;;
29218;SDS011;16421;50.202;7.852;2023-07-29T19:35:32;0.60;;;0.60;;
29218;SDS011;16421;50.202;7.852;2023-07-29T19:40:35;0.77;;;0.63;;
29218;SDS011;16421;50.202;7.852;2023-07-29T19:45:45;1.60;;;0.80;;
29218;SDS011;16421;50.202;7.852;2023-07-29T19:50:57;1.02;;;0.50;;
29218;SDS011;16421;50.202;7.852;2023-07-29T19:56:01;1.55;;;0.50;;
29218;SDS011;16421;50.202;7.852;2023-07-29T20:01:06;0.98;;;0.50;;
29218;SDS011;16421;50.202;7.852;2023-07-29T20:06:10;0.60;;;0.55;;
29218;SDS011;16421;50.202;7.852;2023-07-29T20:11:13;0.70;;;0.50;;
29218;SDS011;16421;50.202;7.852;2023-07-29T20:16:18;1.58;;;0.60;;
29218;SDS011;16421;50.202;7.852;2023-07-29T20:21:22;1.00;;;0.50;;
29218;SDS011;16421;50.202;7.852;2023-07-29T20:26:25;1.35;;;0.70;;
29218;SDS011;16421;50.202;7.852;2023-07-29T20:31:34;1.85;;;0.60;;
29218;SDS011;16421;50.202;7.852;2023-07-29T20:36:43;0.77;;;0.60;;
29218;SDS011;16421;50.202;7.852;2023-07-29T20:41:47;5.03;;;0.70;;
29218;SDS011;16421;50.202;7.852;2023-07-29T20:46:52;1.10;;;0.50;;
29218;SDS011;16421;50.202;7.852;2023-07-29T20:51:55;2.65;;;0.70;;
29218;SDS011;16421;50.202;7.852;2023-07-29T20:56:59;0.65;;;0.40;;
29218;SDS011;16421;50.202;7.852;2023-07-29T21:02:04;0.38;;;0.30;;
29218;SDS011;16421;50.202;7.852;2023-07-29T21:07:07;1.13;;;0.40;;
29218;SDS011;16421;50.202;7.852;2023-07-29T21:12:11;0.85;;;0.35;;
29218;SDS011;16421;50.202;7.852;2023-07-29T21:17:17;0.70;;;0.40;;
29218;SDS011;16421;50.202;7.852;2023-07-29T21:22:20;7.25;;;1.05;;
29218;SDS011;16421;50.202;7.852;2023-07-29T21:27:23;0.70;;;0.50;;
29218;SDS011;16421;50.202;7.852;2023-07-29T21:32:28;2.25;;;0.40;;
29218;SDS011;16421;50.202;7.852;2023-07-29T21:37:32;0.35;;;0.35;;
29218;SDS011;16421;50.202;7.852;2023-07-29T21:42:37;0.57;;;0.43;;
29218;SDS011;16421;50.202;7.852;2023-07-29T21:47:43;0.60;;;0.40;;
29218;SDS011;16421;50.202;7.852;2023-07-29T21:52:47;0.50;;;0.30;;
29218;SDS011;16421;50.202;7.852;2023-07-29T21:57:50;1.45;;;0.30;;
29218;SDS011;16421;50.202;7.852;2023-07-29T22:02:55;2.25;;;0.40;;
29218;SDS011;16421;50.202;7.852;2023-07-29T22:07:58;0.57;;;0.40;;
29218;SDS011;16421;50.202;7.852;2023-07-29T22:13:03;0.38;;;0.35;;
29218;SDS011;16421;50.202;7.852;2023-07-29T22:18:08;0.52;;;0.30;;
29218;SDS011;16421;50.202;7.852;2023-07-29T22:23:12;0.60;;;0.40;;
29218;SDS011;16421;50.202;7.852;2023-07-29T22:28:15;1.48;;;0.45;;
29218;SDS011;16421;50.202;7.852;2023-07-29T22:33:20;2.60;;;0.50;;
29218;SDS011;16421;50.202;7.852;2023-07-29T22:38:24;0.57;;;0.40;;
29218;SDS011;16421;50.202;7.852;2023-07-29T22:43:27;2.40;;;0.70;;
29218;SDS011;16421;50.202;7.852;2023-07-29T22:48:33;0.65;;;0.30;;
29218;SDS011;16421;50.202;7.852;2023-07-29T22:53:36;1.80;;;0.65;;
29218;SDS011;16421;50.202;7.852;2023-07-29T22:58:39;0.70;;;0.70;;
29218;SDS011;16421;50.202;7.852;2023-07-29T23:03:44;0.70;;;0.32;;
29218;SDS011;16421;50.202;7.852;2023-07-29T23:08:48;0.52;;;0.52;;
29218;SDS011;16421;50.202;7.852;2023-07-29T23:13:51;0.60;;;0.45;;
29218;SDS011;16421;50.202;7.852;2023-07-29T23:18:56;1.98;;;0.50;;
29218;SDS011;16421;50.202;7.852;2023-07-29T23:23:59;0.80;;;0.60;;
29218;SDS011;16421;50.202;7.852;2023-07-29T23:29:02;1.52;;;0.57;;
29218;SDS011;16421;50.202;7.852;2023-07-29T23:34:07;0.82;;;0.43;;
29218;SDS011;16421;50.202;7.852;2023-07-29T23:39:10;2.35;;;0.50;;
29218;SDS011;16421;50.202;7.852;2023-07-29T23:44:14;0.77;;;0.40;;
29218;SDS011;16421;50.202;7.852;2023-07-29T23:49:19;1.83;;;0.50;;
29218;SDS011;16421;50.202;7.852;2023-07-29T23:54:22;3.03;;;0.50;;
29218;SDS011;16421;50.202;7.852;2023-07-29T23:59:25;1.55;;;0.50;;
